sensor_id;sensor_type;location;lat;lon;timestamp;P1;durP1;ratioP1;P2;durP2;ratioP2
16826;SDS011;8530;49.540;8.576;2023-03-26T00:02:06;10.93;;;2.33;;
16826;SDS011;8530;49.540;8.576;2023-03-26T00:04:32;5.83;;;2.70;;
16826;SDS011;8530;49.540;8.576;2023-03-26T00:06:59;8.87;;;4.87;;
16826;SDS011;8530;49.540;8.576;2023-03-26T00:09:26;7.80;;;2.67;;
16826;SDS011;8530;49.540;8.576;2023-03-26T00:11:53;7.83;;;3.50;;
16826;SDS011;8530;49.540;8.576;2023-03-26T00:14:22;8.27;;;3.17;;
16826;SDS011;8530;49.540;8.576;2023-03-26T00:16:49;6.83;;;3.03;;
16826;SDS011;8530;49.540;8.576;2023-03-26T00:19:15;6.93;;;2.70;;
16826;SDS011;8530;49.540;8.576;2023-03-26T00:21:42;12.40;;;3.30;;
16826;SDS011;8530;49.540;8.576;2023-03-26T00:24:10;5.73;;;2.70;;
16826;SDS011;8530;49.540;8.576;2023-03-26T00:26:40;6.83;;;2.83;;
16826;SDS011;8530;49.540;8.576;2023-03-26T00:29:06;9.83;;;2.87;;
16826;SDS011;8530;49.540;8.576;2023-03-26T00:31:35;10.83;;;3.23;;
16826;SDS011;8530;49.540;8.576;2023-03-26T00:34:03;7.13;;;3.40;;
16826;SDS011;8530;49.540;8.576;2023-03-26T00:36:30;10.60;;;3.20;;
16826;SDS011;8530;49.540;8.576;2023-03-26T00:38:59;9.40;;;3.13;;
16826;SDS011;8530;49.540;8.576;2023-03-26T00:41:29;6.73;;;2.80;;
16826;SDS011;8530;49.540;8.576;2023-03-26T00:43:56;8.47;;;2.43;;
16826;SDS011;8530;49.540;8.576;2023-03-26T00:46:25;28.77;;;4.20;;
16826;SDS011;8530;49.540;8.576;2023-03-26T00:48:54;7.60;;;2.90;;
16826;SDS011;8530;49.540;8.576;2023-03-26T00:51:22;13.40;;;3.23;;
16826;SDS011;8530;49.540;8.576;2023-03-26T00:53:49;5.20;;;2.50;;
16826;SDS011;8530;49.540;8.576;2023-03-26T00:56:16;11.70;;;3.33;;
16826;SDS011;8530;49.540;8.576;2023-03-26T00:58:44;10.17;;;3.30;;
16826;SDS011;8530;49.540;8.576;2023-03-26T01:01:12;7.30;;;2.60;;
16826;SDS011;8530;49.540;8.576;2023-03-26T01:03:41;10.57;;;3.43;;
16826;SDS011;8530;49.540;8.576;2023-03-26T01:06:11;6.20;;;3.17;;
16826;SDS011;8530;49.540;8.576;2023-03-26T01:08:42;4.77;;;2.70;;
16826;SDS011;8530;49.540;8.576;2023-03-26T01:11:11;6.07;;;2.63;;
16826;SDS011;8530;49.540;8.576;2023-03-26T01:13:42;6.53;;;3.40;;
16826;SDS011;8530;49.540;8.576;2023-03-26T01:16:14;5.77;;;2.73;;
16826;SDS011;8530;49.540;8.576;2023-03-26T01:18:45;9.50;;;3.60;;
16826;SDS011;8530;49.540;8.576;2023-03-26T01:21:15;8.70;;;3.00;;
16826;SDS011;8530;49.540;8.576;2023-03-26T01:23:47;9.47;;;4.10;;
16826;SDS011;8530;49.540;8.576;2023-03-26T01:26:26;6.50;;;2.93;;
16826;SDS011;8530;49.540;8.576;2023-03-26T01:29:01;7.93;;;2.90;;
16826;SDS011;8530;49.540;8.576;2023-03-26T01:31:33;5.33;;;2.73;;
16826;SDS011;8530;49.540;8.576;2023-03-26T01:34:06;8.90;;;2.77;;
16826;SDS011;8530;49.540;8.576;2023-03-26T01:36:40;7.63;;;2.63;;
16826;SDS011;8530;49.540;8.576;2023-03-26T01:39:16;11.13;;;3.20;;
16826;SDS011;8530;49.540;8.576;2023-03-26T01:41:50;7.33;;;2.30;;
16826;SDS011;8530;49.540;8.576;2023-03-26T01:44:22;6.43;;;2.60;;
16826;SDS011;8530;49.540;8.576;2023-03-26T01:46:55;9.27;;;3.47;;
16826;SDS011;8530;49.540;8.576;2023-03-26T01:49:25;5.70;;;2.83;;
16826;SDS011;8530;49.540;8.576;2023-03-26T01:51:53;6.97;;;2.77;;
16826;SDS011;8530;49.540;8.576;2023-03-26T01:54:23;9.07;;;3.03;;
16826;SDS011;8530;49.540;8.576;2023-03-26T01:56:55;6.50;;;3.20;;
16826;SDS011;8530;49.540;8.576;2023-03-26T01:59:32;6.03;;;2.97;;
16826;SDS011;8530;49.540;8.576;2023-03-26T02:02:11;11.23;;;2.90;;
16826;SDS011;8530;49.540;8.576;2023-03-26T02:04:42;6.33;;;3.20;;
16826;SDS011;8530;49.540;8.576;2023-03-26T02:07:18;9.90;;;3.13;;
16826;SDS011;8530;49.540;8.576;2023-03-26T02:09:52;6.60;;;2.77;;
16826;SDS011;8530;49.540;8.576;2023-03-26T02:12:23;8.33;;;3.27;;
16826;SDS011;8530;49.540;8.576;2023-03-26T02:14:51;10.17;;;3.17;;
16826;SDS011;8530;49.540;8.576;2023-03-26T02:17:18;7.60;;;3.00;;
16826;SDS011;8530;49.540;8.576;2023-03-26T02:19:48;5.80;;;2.37;;
16826;SDS011;8530;49.540;8.576;2023-03-26T02:22:16;3.73;;;3.33;;
16826;SDS011;8530;49.540;8.576;2023-03-26T02:24:43;7.93;;;3.43;;
16826;SDS011;8530;49.540;8.576;2023-03-26T02:27:11;9.03;;;3.20;;
16826;SDS011;8530;49.540;8.576;2023-03-26T02:29:38;9.50;;;3.40;;
16826;SDS011;8530;49.540;8.576;2023-03-26T02:32:06;9.40;;;3.70;;
16826;SDS011;8530;49.540;8.576;2023-03-26T02:34:37;9.37;;;3.83;;
16826;SDS011;8530;49.540;8.576;2023-03-26T02:37:04;4.17;;;2.43;;
16826;SDS011;8530;49.540;8.576;2023-03-26T02:39:31;6.90;;;2.80;;
16826;SDS011;8530;49.540;8.576;2023-03-26T02:41:58;5.87;;;3.27;;
16826;SDS011;8530;49.540;8.576;2023-03-26T02:44:26;4.93;;;3.30;;
16826;SDS011;8530;49.540;8.576;2023-03-26T02:46:53;8.27;;;3.00;;
16826;SDS011;8530;49.540;8.576;2023-03-26T02:52:33;12.27;;;3.90;;
16826;SDS011;8530;49.540;8.576;2023-03-26T02:55:00;13.63;;;3.67;;
16826;SDS011;8530;49.540;8.576;2023-03-26T02:57:27;14.10;;;3.47;;
16826;SDS011;8530;49.540;8.576;2023-03-26T02:59:56;8.87;;;2.67;;
16826;SDS011;8530;49.540;8.576;2023-03-26T03:02:23;8.10;;;2.50;;
16826;SDS011;8530;49.540;8.576;2023-03-26T03:04:53;9.70;;;3.70;;
16826;SDS011;8530;49.540;8.576;2023-03-26T03:07:25;9.63;;;2.30;;
16826;SDS011;8530;49.540;8.576;2023-03-26T03:09:52;6.93;;;3.10;;
16826;SDS011;8530;49.540;8.576;2023-03-26T03:12:19;5.93;;;2.90;;
16826;SDS011;8530;49.540;8.576;2023-03-26T03:14:46;5.83;;;3.50;;
16826;SDS011;8530;49.540;8.576;2023-03-26T03:17:14;6.80;;;3.43;;
16826;SDS011;8530;49.540;8.576;2023-03-26T03:19:40;4.10;;;3.10;;
16826;SDS011;8530;49.540;8.576;2023-03-26T03:22:07;8.67;;;3.70;;
16826;SDS011;8530;49.540;8.576;2023-03-26T03:24:34;7.90;;;3.67;;
16826;SDS011;8530;49.540;8.576;2023-03-26T03:27:00;8.67;;;3.73;;
16826;SDS011;8530;49.540;8.576;2023-03-26T03:29:28;11.67;;;3.93;;
16826;SDS011;8530;49.540;8.576;2023-03-26T03:31:54;9.20;;;3.27;;
16826;SDS011;8530;49.540;8.576;2023-03-26T03:34:25;11.20;;;3.40;;
16826;SDS011;8530;49.540;8.576;2023-03-26T03:36:52;7.73;;;2.87;;
16826;SDS011;8530;49.540;8.576;2023-03-26T03:39:18;4.50;;;2.60;;
16826;SDS011;8530;49.540;8.576;2023-03-26T03:41:45;7.80;;;2.70;;
16826;SDS011;8530;49.540;8.576;2023-03-26T03:44:13;8.47;;;3.60;;
16826;SDS011;8530;49.540;8.576;2023-03-26T03:46:40;15.23;;;3.53;;
16826;SDS011;8530;49.540;8.576;2023-03-26T03:49:07;10.93;;;3.77;;
16826;SDS011;8530;49.540;8.576;2023-03-26T03:51:35;17.57;;;4.30;;
16826;SDS011;8530;49.540;8.576;2023-03-26T03:54:02;7.10;;;3.57;;
16826;SDS011;8530;49.540;8.576;2023-03-26T03:56:28;4.90;;;3.00;;
16826;SDS011;8530;49.540;8.576;2023-03-26T03:58:55;19.47;;;3.80;;
16826;SDS011;8530;49.540;8.576;2023-03-26T04:01:22;7.40;;;3.23;;
16826;SDS011;8530;49.540;8.576;2023-03-26T04:03:49;8.37;;;3.27;;
16826;SDS011;8530;49.540;8.576;2023-03-26T04:06:16;8.30;;;3.30;;
16826;SDS011;8530;49.540;8.576;2023-03-26T04:08:44;11.03;;;3.60;;
16826;SDS011;8530;49.540;8.576;2023-03-26T04:11:11;5.30;;;2.83;;
16826;SDS011;8530;49.540;8.576;2023-03-26T04:13:38;15.40;;;2.80;;
16826;SDS011;8530;49.540;8.576;2023-03-26T04:16:05;13.70;;;3.20;;
16826;SDS011;8530;49.540;8.576;2023-03-26T04:18:32;6.63;;;2.80;;
16826;SDS011;8530;49.540;8.576;2023-03-26T04:21:00;7.30;;;3.40;;
16826;SDS011;8530;49.540;8.576;2023-03-26T04:23:28;9.53;;;3.33;;
16826;SDS011;8530;49.540;8.576;2023-03-26T04:25:56;11.40;;;3.80;;
16826;SDS011;8530;49.540;8.576;2023-03-26T04:28:28;7.77;;;3.10;;
16826;SDS011;8530;49.540;8.576;2023-03-26T04:30:58;10.77;;;3.10;;
16826;SDS011;8530;49.540;8.576;2023-03-26T04:33:27;6.00;;;2.97;;
16826;SDS011;8530;49.540;8.576;2023-03-26T04:35:55;7.47;;;3.77;;
16826;SDS011;8530;49.540;8.576;2023-03-26T04:38:26;11.37;;;2.93;;
16826;SDS011;8530;49.540;8.576;2023-03-26T04:40:55;10.73;;;3.80;;
16826;SDS011;8530;49.540;8.576;2023-03-26T04:43:24;15.60;;;3.63;;
16826;SDS011;8530;49.540;8.576;2023-03-26T04:45:51;7.90;;;3.10;;
16826;SDS011;8530;49.540;8.576;2023-03-26T04:48:18;12.07;;;4.07;;
16826;SDS011;8530;49.540;8.576;2023-03-26T04:50:45;8.27;;;4.33;;
16826;SDS011;8530;49.540;8.576;2023-03-26T04:53:13;12.50;;;4.03;;
16826;SDS011;8530;49.540;8.576;2023-03-26T04:55:42;7.13;;;3.30;;
16826;SDS011;8530;49.540;8.576;2023-03-26T04:58:15;10.10;;;3.40;;
16826;SDS011;8530;49.540;8.576;2023-03-26T05:00:42;11.47;;;3.17;;
16826;SDS011;8530;49.540;8.576;2023-03-26T05:03:11;10.50;;;4.40;;
16826;SDS011;8530;49.540;8.576;2023-03-26T05:05:38;9.30;;;3.30;;
16826;SDS011;8530;49.540;8.576;2023-03-26T05:08:05;13.43;;;3.10;;
16826;SDS011;8530;49.540;8.576;2023-03-26T05:10:32;5.07;;;2.97;;
16826;SDS011;8530;49.540;8.576;2023-03-26T05:12:59;6.93;;;3.33;;
16826;SDS011;8530;49.540;8.576;2023-03-26T05:15:27;10.83;;;4.10;;
16826;SDS011;8530;49.540;8.576;2023-03-26T05:17:54;7.33;;;3.50;;
16826;SDS011;8530;49.540;8.576;2023-03-26T05:20:21;8.17;;;3.67;;
16826;SDS011;8530;49.540;8.576;2023-03-26T05:22:50;9.93;;;3.90;;
16826;SDS011;8530;49.540;8.576;2023-03-26T05:25:17;10.83;;;3.50;;
16826;SDS011;8530;49.540;8.576;2023-03-26T05:27:44;8.40;;;3.20;;
16826;SDS011;8530;49.540;8.576;2023-03-26T05:30:12;7.77;;;4.03;;
16826;SDS011;8530;49.540;8.576;2023-03-26T05:32:42;7.20;;;3.10;;
16826;SDS011;8530;49.540;8.576;2023-03-26T05:35:10;6.73;;;3.20;;
16826;SDS011;8530;49.540;8.576;2023-03-26T05:37:37;12.73;;;4.10;;
16826;SDS011;8530;49.540;8.576;2023-03-26T05:40:04;11.73;;;3.70;;
16826;SDS011;8530;49.540;8.576;2023-03-26T05:42:36;12.30;;;2.90;;
16826;SDS011;8530;49.540;8.576;2023-03-26T05:45:04;10.93;;;3.90;;
16826;SDS011;8530;49.540;8.576;2023-03-26T05:47:31;8.20;;;2.93;;
16826;SDS011;8530;49.540;8.576;2023-03-26T05:50:00;8.23;;;3.80;;
16826;SDS011;8530;49.540;8.576;2023-03-26T05:52:27;9.60;;;3.73;;
16826;SDS011;8530;49.540;8.576;2023-03-26T05:54:54;4.87;;;3.23;;
16826;SDS011;8530;49.540;8.576;2023-03-26T05:57:20;8.70;;;3.50;;
16826;SDS011;8530;49.540;8.576;2023-03-26T05:59:47;7.80;;;3.47;;
16826;SDS011;8530;49.540;8.576;2023-03-26T06:09:00;5.30;;;3.33;;
16826;SDS011;8530;49.540;8.576;2023-03-26T06:11:28;11.80;;;3.40;;
16826;SDS011;8530;49.540;8.576;2023-03-26T06:13:55;10.63;;;3.97;;
16826;SDS011;8530;49.540;8.576;2023-03-26T06:16:22;10.97;;;3.37;;
16826;SDS011;8530;49.540;8.576;2023-03-26T06:18:48;13.67;;;3.80;;
16826;SDS011;8530;49.540;8.576;2023-03-26T06:21:15;9.73;;;4.80;;
16826;SDS011;8530;49.540;8.576;2023-03-26T06:23:42;13.60;;;3.70;;
16826;SDS011;8530;49.540;8.576;2023-03-26T06:26:10;15.37;;;4.60;;
16826;SDS011;8530;49.540;8.576;2023-03-26T06:28:37;14.20;;;4.00;;
16826;SDS011;8530;49.540;8.576;2023-03-26T06:31:04;11.90;;;3.57;;
16826;SDS011;8530;49.540;8.576;2023-03-26T06:33:31;9.63;;;4.50;;
16826;SDS011;8530;49.540;8.576;2023-03-26T06:35:58;18.33;;;4.73;;
16826;SDS011;8530;49.540;8.576;2023-03-26T06:38:24;10.03;;;4.90;;
16826;SDS011;8530;49.540;8.576;2023-03-26T06:40:51;17.57;;;7.17;;
16826;SDS011;8530;49.540;8.576;2023-03-26T06:43:19;12.70;;;5.93;;
16826;SDS011;8530;49.540;8.576;2023-03-26T06:45:49;13.40;;;5.07;;
16826;SDS011;8530;49.540;8.576;2023-03-26T06:48:16;9.40;;;4.50;;
16826;SDS011;8530;49.540;8.576;2023-03-26T06:50:42;13.37;;;3.60;;
16826;SDS011;8530;49.540;8.576;2023-03-26T06:53:09;8.50;;;3.40;;
16826;SDS011;8530;49.540;8.576;2023-03-26T06:55:36;8.33;;;3.03;;
16826;SDS011;8530;49.540;8.576;2023-03-26T06:58:03;11.03;;;3.80;;
16826;SDS011;8530;49.540;8.576;2023-03-26T07:00:31;8.23;;;3.80;;
16826;SDS011;8530;49.540;8.576;2023-03-26T07:02:58;8.87;;;4.00;;
16826;SDS011;8530;49.540;8.576;2023-03-26T07:05:24;6.20;;;4.50;;
16826;SDS011;8530;49.540;8.576;2023-03-26T07:07:51;6.37;;;3.77;;
16826;SDS011;8530;49.540;8.576;2023-03-26T07:10:18;12.03;;;4.03;;
16826;SDS011;8530;49.540;8.576;2023-03-26T07:12:45;7.03;;;4.20;;
16826;SDS011;8530;49.540;8.576;2023-03-26T07:15:11;7.83;;;3.83;;
16826;SDS011;8530;49.540;8.576;2023-03-26T07:17:39;12.20;;;4.40;;
16826;SDS011;8530;49.540;8.576;2023-03-26T07:20:07;10.27;;;3.47;;
16826;SDS011;8530;49.540;8.576;2023-03-26T07:22:34;9.63;;;3.60;;
16826;SDS011;8530;49.540;8.576;2023-03-26T07:25:02;7.23;;;2.90;;
16826;SDS011;8530;49.540;8.576;2023-03-26T07:27:35;6.30;;;2.90;;
16826;SDS011;8530;49.540;8.576;2023-03-26T07:30:07;4.87;;;3.17;;
16826;SDS011;8530;49.540;8.576;2023-03-26T07:32:38;10.57;;;3.93;;
16826;SDS011;8530;49.540;8.576;2023-03-26T07:35:12;6.70;;;3.73;;
16826;SDS011;8530;49.540;8.576;2023-03-26T07:37:46;7.67;;;3.60;;
16826;SDS011;8530;49.540;8.576;2023-03-26T07:40:34;6.73;;;3.67;;
16826;SDS011;8530;49.540;8.576;2023-03-26T07:43:10;10.20;;;4.67;;
16826;SDS011;8530;49.540;8.576;2023-03-26T07:45:46;9.37;;;4.90;;
16826;SDS011;8530;49.540;8.576;2023-03-26T07:48:16;9.90;;;5.67;;
16826;SDS011;8530;49.540;8.576;2023-03-26T07:50:44;7.70;;;3.23;;
16826;SDS011;8530;49.540;8.576;2023-03-26T07:53:12;11.13;;;3.83;;
16826;SDS011;8530;49.540;8.576;2023-03-26T07:55:42;10.83;;;4.93;;
16826;SDS011;8530;49.540;8.576;2023-03-26T07:58:18;11.03;;;3.77;;
16826;SDS011;8530;49.540;8.576;2023-03-26T08:00:57;12.90;;;3.93;;
16826;SDS011;8530;49.540;8.576;2023-03-26T08:06:30;11.27;;;5.57;;
16826;SDS011;8530;49.540;8.576;2023-03-26T08:09:02;10.80;;;6.63;;
16826;SDS011;8530;49.540;8.576;2023-03-26T08:11:36;8.40;;;3.17;;
16826;SDS011;8530;49.540;8.576;2023-03-26T08:14:16;14.37;;;3.40;;
16826;SDS011;8530;49.540;8.576;2023-03-26T08:16:52;8.80;;;3.73;;
16826;SDS011;8530;49.540;8.576;2023-03-26T08:19:27;14.57;;;3.90;;
16826;SDS011;8530;49.540;8.576;2023-03-26T08:22:05;10.20;;;3.50;;
16826;SDS011;8530;49.540;8.576;2023-03-26T08:24:39;6.87;;;3.20;;
16826;SDS011;8530;49.540;8.576;2023-03-26T08:27:15;38.63;;;9.80;;
16826;SDS011;8530;49.540;8.576;2023-03-26T08:29:48;9.93;;;3.40;;
16826;SDS011;8530;49.540;8.576;2023-03-26T08:32:22;10.37;;;4.50;;
16826;SDS011;8530;49.540;8.576;2023-03-26T08:34:50;11.13;;;3.90;;
16826;SDS011;8530;49.540;8.576;2023-03-26T08:37:17;10.17;;;3.47;;
16826;SDS011;8530;49.540;8.576;2023-03-26T08:39:43;8.87;;;2.97;;
16826;SDS011;8530;49.540;8.576;2023-03-26T08:42:31;6.90;;;3.30;;
16826;SDS011;8530;49.540;8.576;2023-03-26T08:48:38;8.37;;;3.93;;
16826;SDS011;8530;49.540;8.576;2023-03-26T08:51:39;9.27;;;3.87;;
16826;SDS011;8530;49.540;8.576;2023-03-26T08:57:22;6.43;;;2.93;;
16826;SDS011;8530;49.540;8.576;2023-03-26T09:00:49;11.37;;;4.20;;
16826;SDS011;8530;49.540;8.576;2023-03-26T09:03:42;10.47;;;2.87;;
16826;SDS011;8530;49.540;8.576;2023-03-26T09:06:39;7.40;;;3.20;;
16826;SDS011;8530;49.540;8.576;2023-03-26T09:12:46;10.63;;;3.27;;
16826;SDS011;8530;49.540;8.576;2023-03-26T09:15:35;10.30;;;3.37;;
16826;SDS011;8530;49.540;8.576;2023-03-26T09:18:30;11.40;;;3.57;;
16826;SDS011;8530;49.540;8.576;2023-03-26T09:25:04;8.50;;;3.60;;
16826;SDS011;8530;49.540;8.576;2023-03-26T09:27:52;6.23;;;2.70;;
16826;SDS011;8530;49.540;8.576;2023-03-26T09:33:48;9.10;;;2.87;;
16826;SDS011;8530;49.540;8.576;2023-03-26T09:36:31;3.53;;;2.60;;
16826;SDS011;8530;49.540;8.576;2023-03-26T09:39:08;3.63;;;2.63;;
16826;SDS011;8530;49.540;8.576;2023-03-26T09:41:47;11.60;;;2.83;;
16826;SDS011;8530;49.540;8.576;2023-03-26T09:44:34;4.23;;;2.20;;
16826;SDS011;8530;49.540;8.576;2023-03-26T09:47:38;5.20;;;2.50;;
16826;SDS011;8530;49.540;8.576;2023-03-26T09:50:28;4.53;;;2.47;;
16826;SDS011;8530;49.540;8.576;2023-03-26T09:53:14;10.00;;;2.77;;
16826;SDS011;8530;49.540;8.576;2023-03-26T09:56:05;12.33;;;2.50;;
16826;SDS011;8530;49.540;8.576;2023-03-26T09:59:01;5.47;;;2.80;;
16826;SDS011;8530;49.540;8.576;2023-03-26T10:01:41;6.60;;;2.10;;
16826;SDS011;8530;49.540;8.576;2023-03-26T10:04:26;3.90;;;2.73;;
16826;SDS011;8530;49.540;8.576;2023-03-26T10:07:08;9.80;;;2.93;;
16826;SDS011;8530;49.540;8.576;2023-03-26T10:09:55;5.17;;;2.77;;
16826;SDS011;8530;49.540;8.576;2023-03-26T10:12:28;8.80;;;3.10;;
16826;SDS011;8530;49.540;8.576;2023-03-26T10:15:02;3.80;;;2.50;;
16826;SDS011;8530;49.540;8.576;2023-03-26T10:17:50;6.53;;;2.97;;
16826;SDS011;8530;49.540;8.576;2023-03-26T10:20:27;6.73;;;2.20;;
16826;SDS011;8530;49.540;8.576;2023-03-26T10:23:07;6.87;;;3.37;;
16826;SDS011;8530;49.540;8.576;2023-03-26T10:26:02;13.23;;;3.77;;
16826;SDS011;8530;49.540;8.576;2023-03-26T10:28:53;10.87;;;2.80;;
16826;SDS011;8530;49.540;8.576;2023-03-26T10:34:20;4.97;;;2.40;;
16826;SDS011;8530;49.540;8.576;2023-03-26T10:37:00;5.47;;;2.73;;
16826;SDS011;8530;49.540;8.576;2023-03-26T10:39:38;5.97;;;3.90;;
16826;SDS011;8530;49.540;8.576;2023-03-26T10:42:20;6.97;;;2.77;;
16826;SDS011;8530;49.540;8.576;2023-03-26T10:45:09;4.87;;;3.00;;
16826;SDS011;8530;49.540;8.576;2023-03-26T10:47:51;4.87;;;2.40;;
16826;SDS011;8530;49.540;8.576;2023-03-26T10:50:30;8.50;;;3.13;;
16826;SDS011;8530;49.540;8.576;2023-03-26T10:53:07;6.90;;;2.87;;
16826;SDS011;8530;49.540;8.576;2023-03-26T10:55:45;6.67;;;3.27;;
16826;SDS011;8530;49.540;8.576;2023-03-26T10:58:20;6.20;;;2.97;;
16826;SDS011;8530;49.540;8.576;2023-03-26T11:00:52;7.10;;;2.70;;
16826;SDS011;8530;49.540;8.576;2023-03-26T11:03:31;11.33;;;3.60;;
16826;SDS011;8530;49.540;8.576;2023-03-26T11:06:15;6.27;;;3.70;;
16826;SDS011;8530;49.540;8.576;2023-03-26T11:08:52;9.20;;;3.30;;
16826;SDS011;8530;49.540;8.576;2023-03-26T11:11:27;7.47;;;3.70;;
16826;SDS011;8530;49.540;8.576;2023-03-26T11:20:36;4.77;;;3.10;;
16826;SDS011;8530;49.540;8.576;2023-03-26T11:23:10;4.33;;;2.80;;
16826;SDS011;8530;49.540;8.576;2023-03-26T11:31:46;5.30;;;2.83;;
16826;SDS011;8530;49.540;8.576;2023-03-26T11:34:24;6.33;;;3.00;;
16826;SDS011;8530;49.540;8.576;2023-03-26T11:37:00;4.80;;;2.87;;
16826;SDS011;8530;49.540;8.576;2023-03-26T11:39:39;4.40;;;3.10;;
16826;SDS011;8530;49.540;8.576;2023-03-26T11:42:11;4.23;;;2.33;;
16826;SDS011;8530;49.540;8.576;2023-03-26T11:44:42;2.77;;;2.13;;
16826;SDS011;8530;49.540;8.576;2023-03-26T11:47:12;5.53;;;2.10;;
16826;SDS011;8530;49.540;8.576;2023-03-26T11:49:43;3.00;;;2.00;;
16826;SDS011;8530;49.540;8.576;2023-03-26T11:52:15;4.93;;;1.90;;
16826;SDS011;8530;49.540;8.576;2023-03-26T11:54:42;1.50;;;1.30;;
16826;SDS011;8530;49.540;8.576;2023-03-26T11:57:15;4.87;;;1.93;;
16826;SDS011;8530;49.540;8.576;2023-03-26T11:59:49;6.80;;;2.20;;
16826;SDS011;8530;49.540;8.576;2023-03-26T12:02:23;2.10;;;1.27;;
16826;SDS011;8530;49.540;8.576;2023-03-26T12:05:09;2.87;;;1.43;;
16826;SDS011;8530;49.540;8.576;2023-03-26T12:07:53;3.70;;;1.67;;
16826;SDS011;8530;49.540;8.576;2023-03-26T12:10:23;2.20;;;1.90;;
16826;SDS011;8530;49.540;8.576;2023-03-26T12:12:54;3.33;;;1.40;;
16826;SDS011;8530;49.540;8.576;2023-03-26T12:15:23;2.80;;;1.80;;
16826;SDS011;8530;49.540;8.576;2023-03-26T12:17:51;3.40;;;1.90;;
16826;SDS011;8530;49.540;8.576;2023-03-26T12:23:32;3.40;;;1.73;;
16826;SDS011;8530;49.540;8.576;2023-03-26T12:26:03;2.90;;;1.53;;
16826;SDS011;8530;49.540;8.576;2023-03-26T12:28:36;2.80;;;1.80;;
16826;SDS011;8530;49.540;8.576;2023-03-26T12:31:10;3.53;;;1.90;;
16826;SDS011;8530;49.540;8.576;2023-03-26T12:33:42;3.03;;;1.40;;
16826;SDS011;8530;49.540;8.576;2023-03-26T12:36:16;4.73;;;1.67;;
16826;SDS011;8530;49.540;8.576;2023-03-26T12:38:51;3.10;;;1.60;;
16826;SDS011;8530;49.540;8.576;2023-03-26T12:41:19;2.10;;;1.70;;
16826;SDS011;8530;49.540;8.576;2023-03-26T12:44:13;2.23;;;1.57;;
16826;SDS011;8530;49.540;8.576;2023-03-26T12:46:50;2.37;;;1.50;;
16826;SDS011;8530;49.540;8.576;2023-03-26T12:49:31;3.60;;;1.50;;
16826;SDS011;8530;49.540;8.576;2023-03-26T12:52:00;6.73;;;1.87;;
16826;SDS011;8530;49.540;8.576;2023-03-26T12:54:46;8.03;;;2.00;;
16826;SDS011;8530;49.540;8.576;2023-03-26T12:57:19;4.30;;;1.40;;
16826;SDS011;8530;49.540;8.576;2023-03-26T13:02:55;3.70;;;1.60;;
16826;SDS011;8530;49.540;8.576;2023-03-26T13:05:35;6.00;;;1.33;;
16826;SDS011;8530;49.540;8.576;2023-03-26T13:08:19;3.10;;;1.60;;
16826;SDS011;8530;49.540;8.576;2023-03-26T13:11:01;3.63;;;1.60;;
16826;SDS011;8530;49.540;8.576;2023-03-26T13:16:45;2.00;;;1.37;;
16826;SDS011;8530;49.540;8.576;2023-03-26T13:19:20;10.10;;;2.37;;
16826;SDS011;8530;49.540;8.576;2023-03-26T13:21:56;3.60;;;1.50;;
16826;SDS011;8530;49.540;8.576;2023-03-26T13:24:35;7.10;;;2.03;;
16826;SDS011;8530;49.540;8.576;2023-03-26T13:27:17;11.00;;;6.80;;
16826;SDS011;8530;49.540;8.576;2023-03-26T13:29:54;4.47;;;2.93;;
16826;SDS011;8530;49.540;8.576;2023-03-26T13:32:28;4.00;;;2.10;;
16826;SDS011;8530;49.540;8.576;2023-03-26T13:35:09;5.90;;;1.30;;
16826;SDS011;8530;49.540;8.576;2023-03-26T13:37:44;4.73;;;1.63;;
16826;SDS011;8530;49.540;8.576;2023-03-26T13:40:20;4.23;;;1.67;;
16826;SDS011;8530;49.540;8.576;2023-03-26T13:42:59;5.50;;;1.80;;
16826;SDS011;8530;49.540;8.576;2023-03-26T13:45:39;3.70;;;1.90;;
16826;SDS011;8530;49.540;8.576;2023-03-26T13:48:15;3.47;;;1.80;;
16826;SDS011;8530;49.540;8.576;2023-03-26T13:50:48;5.47;;;1.70;;
16826;SDS011;8530;49.540;8.576;2023-03-26T13:53:22;5.60;;;2.40;;
16826;SDS011;8530;49.540;8.576;2023-03-26T13:55:58;4.40;;;2.03;;
16826;SDS011;8530;49.540;8.576;2023-03-26T13:58:29;2.20;;;1.40;;
16826;SDS011;8530;49.540;8.576;2023-03-26T14:01:00;4.70;;;2.30;;
16826;SDS011;8530;49.540;8.576;2023-03-26T14:03:35;3.07;;;1.80;;
16826;SDS011;8530;49.540;8.576;2023-03-26T14:06:10;6.63;;;2.20;;
16826;SDS011;8530;49.540;8.576;2023-03-26T14:08:43;4.50;;;2.60;;
16826;SDS011;8530;49.540;8.576;2023-03-26T14:11:16;5.70;;;2.30;;
16826;SDS011;8530;49.540;8.576;2023-03-26T14:13:50;2.13;;;1.70;;
16826;SDS011;8530;49.540;8.576;2023-03-26T14:16:22;2.33;;;1.50;;
16826;SDS011;8530;49.540;8.576;2023-03-26T14:18:55;5.00;;;2.30;;
16826;SDS011;8530;49.540;8.576;2023-03-26T14:21:51;6.93;;;2.33;;
16826;SDS011;8530;49.540;8.576;2023-03-26T14:24:45;3.27;;;1.63;;
16826;SDS011;8530;49.540;8.576;2023-03-26T14:27:37;3.83;;;1.90;;
16826;SDS011;8530;49.540;8.576;2023-03-26T14:30:26;8.77;;;4.27;;
16826;SDS011;8530;49.540;8.576;2023-03-26T14:33:11;6.40;;;2.60;;
16826;SDS011;8530;49.540;8.576;2023-03-26T14:35:53;5.53;;;2.27;;
16826;SDS011;8530;49.540;8.576;2023-03-26T14:38:32;5.10;;;2.30;;
16826;SDS011;8530;49.540;8.576;2023-03-26T14:41:23;2.63;;;1.70;;
16826;SDS011;8530;49.540;8.576;2023-03-26T14:44:03;5.57;;;2.53;;
16826;SDS011;8530;49.540;8.576;2023-03-26T14:47:08;3.23;;;2.00;;
16826;SDS011;8530;49.540;8.576;2023-03-26T14:52:46;3.80;;;1.57;;
16826;SDS011;8530;49.540;8.576;2023-03-26T14:55:15;3.57;;;1.73;;
16826;SDS011;8530;49.540;8.576;2023-03-26T14:58:02;3.93;;;1.70;;
16826;SDS011;8530;49.540;8.576;2023-03-26T15:09:53;4.20;;;1.57;;
16826;SDS011;8530;49.540;8.576;2023-03-26T15:13:00;3.83;;;2.10;;
16826;SDS011;8530;49.540;8.576;2023-03-26T15:15:48;5.60;;;2.60;;
16826;SDS011;8530;49.540;8.576;2023-03-26T15:18:39;3.57;;;2.17;;
16826;SDS011;8530;49.540;8.576;2023-03-26T15:21:34;2.13;;;1.87;;
16826;SDS011;8530;49.540;8.576;2023-03-26T15:24:34;4.70;;;2.43;;
16826;SDS011;8530;49.540;8.576;2023-03-26T15:27:30;2.80;;;2.07;;
16826;SDS011;8530;49.540;8.576;2023-03-26T15:30:11;2.80;;;1.50;;
16826;SDS011;8530;49.540;8.576;2023-03-26T15:39:16;3.00;;;2.10;;
16826;SDS011;8530;49.540;8.576;2023-03-26T15:42:10;2.07;;;1.87;;
16826;SDS011;8530;49.540;8.576;2023-03-26T15:44:48;1.87;;;1.73;;
16826;SDS011;8530;49.540;8.576;2023-03-26T15:50:29;6.60;;;2.63;;
16826;SDS011;8530;49.540;8.576;2023-03-26T15:53:05;2.60;;;2.10;;
16826;SDS011;8530;49.540;8.576;2023-03-26T15:55:50;2.17;;;1.50;;
16826;SDS011;8530;49.540;8.576;2023-03-26T15:58:26;5.70;;;2.33;;
16826;SDS011;8530;49.540;8.576;2023-03-26T16:00:58;4.37;;;2.27;;
16826;SDS011;8530;49.540;8.576;2023-03-26T16:03:44;7.67;;;2.13;;
16826;SDS011;8530;49.540;8.576;2023-03-26T16:06:24;2.20;;;1.90;;
16826;SDS011;8530;49.540;8.576;2023-03-26T16:09:06;3.10;;;1.73;;
16826;SDS011;8530;49.540;8.576;2023-03-26T16:11:52;3.60;;;1.80;;
16826;SDS011;8530;49.540;8.576;2023-03-26T16:14:21;4.50;;;1.97;;
16826;SDS011;8530;49.540;8.576;2023-03-26T16:17:04;3.87;;;1.93;;
16826;SDS011;8530;49.540;8.576;2023-03-26T16:19:56;3.13;;;1.57;;
16826;SDS011;8530;49.540;8.576;2023-03-26T16:22:36;7.23;;;3.60;;
16826;SDS011;8530;49.540;8.576;2023-03-26T16:25:21;5.30;;;2.73;;
16826;SDS011;8530;49.540;8.576;2023-03-26T16:28:05;4.70;;;2.10;;
16826;SDS011;8530;49.540;8.576;2023-03-26T16:31:04;2.30;;;1.90;;
16826;SDS011;8530;49.540;8.576;2023-03-26T16:34:02;2.40;;;2.20;;
16826;SDS011;8530;49.540;8.576;2023-03-26T16:36:44;2.40;;;1.97;;
16826;SDS011;8530;49.540;8.576;2023-03-26T16:39:20;2.20;;;1.70;;
16826;SDS011;8530;49.540;8.576;2023-03-26T16:41:51;3.70;;;1.63;;
16826;SDS011;8530;49.540;8.576;2023-03-26T16:44:24;3.50;;;2.83;;
16826;SDS011;8530;49.540;8.576;2023-03-26T16:46:57;4.53;;;3.00;;
16826;SDS011;8530;49.540;8.576;2023-03-26T16:49:34;2.57;;;1.80;;
16826;SDS011;8530;49.540;8.576;2023-03-26T16:52:20;3.77;;;1.80;;
16826;SDS011;8530;49.540;8.576;2023-03-26T16:54:50;3.73;;;2.00;;
16826;SDS011;8530;49.540;8.576;2023-03-26T16:57:33;3.30;;;2.20;;